createdAt,value
2019-03-05T00:03:01.850Z,7.98
2019-03-05T00:08:09.440Z,10.47
2019-03-05T00:13:17.137Z,8.46
2019-03-05T00:18:24.781Z,8.74
2019-03-05T00:23:32.395Z,9.32
2019-03-05T00:28:39.979Z,9.70
2019-03-05T00:33:47.649Z,10.07
2019-03-05T00:38:55.230Z,7.97
2019-03-05T00:44:02.949Z,8.85
2019-03-05T00:49:10.578Z,9.30
2019-03-05T00:54:18.203Z,8.13
2019-03-05T00:59:25.778Z,8.50
2019-03-05T01:04:33.394Z,7.99
2019-03-05T01:09:41.033Z,8.84
2019-03-05T01:14:48.745Z,11.48
2019-03-05T01:19:56.386Z,11.45
2019-03-05T01:25:03.996Z,9.54
2019-03-05T01:30:11.619Z,8.97
2019-03-05T01:35:19.321Z,6.78
2019-03-05T01:40:26.935Z,7.28
2019-03-05T01:45:34.577Z,8.78
2019-03-05T01:50:42.163Z,8.17
2019-03-05T01:55:49.834Z,6.68
2019-03-05T02:00:57.407Z,7.03
2019-03-05T02:06:05.117Z,7.03
2019-03-05T02:11:12.744Z,5.53
2019-03-05T02:16:20.513Z,4.40
2019-03-05T02:21:28.114Z,4.82
2019-03-05T02:26:35.830Z,3.21
2019-03-05T02:31:43.463Z,5.68
2019-03-05T02:36:51.083Z,5.21
2019-03-05T02:41:58.705Z,5.71
2019-03-05T02:47:06.348Z,4.11
2019-03-05T02:52:13.941Z,4.86
2019-03-05T02:57:21.616Z,5.50
2019-03-05T03:02:29.244Z,5.29
2019-03-05T03:07:36.917Z,5.45
2019-03-05T03:12:44.519Z,4.99
2019-03-05T03:17:52.188Z,6.12
2019-03-05T03:22:59.808Z,5.90
2019-03-05T03:28:07.497Z,6.83
2019-03-05T03:33:15.130Z,6.66
2019-03-05T03:38:22.754Z,6.09
2019-03-05T03:43:30.356Z,3.91
2019-03-05T03:48:37.987Z,5.38
2019-03-05T03:53:45.574Z,6.47
2019-03-05T03:58:53.293Z,5.71
2019-03-05T04:04:00.915Z,5.67
2019-03-05T04:09:08.580Z,5.39
2019-03-05T04:14:16.180Z,5.13
2019-03-05T04:19:23.913Z,5.22
2019-03-05T04:24:31.525Z,4.61
2019-03-05T04:29:39.160Z,5.41
2019-03-05T04:34:46.793Z,3.42
2019-03-05T04:39:54.430Z,5.38
2019-03-05T04:45:02.048Z,5.51
2019-03-05T04:50:09.711Z,3.82
2019-03-05T04:55:17.321Z,4.72
2019-03-05T05:00:25.018Z,3.98
2019-03-05T05:05:32.626Z,5.86
2019-03-05T05:10:40.289Z,4.74
2019-03-05T05:15:47.904Z,5.44
2019-03-05T05:20:55.572Z,5.59
2019-03-05T05:26:03.179Z,5.32
2019-03-05T05:31:10.797Z,5.13
2019-03-05T05:36:18.394Z,5.63
2019-03-05T05:41:26.041Z,4.65
2019-03-05T05:46:33.634Z,4.78
2019-03-05T05:51:41.336Z,5.52
2019-03-05T05:56:48.970Z,3.96
2019-03-05T06:01:56.629Z,7.12
2019-03-05T06:07:04.275Z,4.64
2019-03-05T06:12:11.942Z,4.43
2019-03-05T06:17:19.526Z,3.72
2019-03-05T06:22:27.191Z,4.69
2019-03-05T06:27:34.807Z,5.33
2019-03-05T06:32:42.482Z,5.11
2019-03-05T06:37:50.076Z,3.96
2019-03-05T06:42:57.758Z,4.10
2019-03-05T06:48:05.380Z,3.47
2019-03-05T06:53:13.130Z,4.73
2019-03-05T06:58:20.684Z,3.48
2019-03-05T07:03:28.461Z,4.12
2019-03-05T07:08:36.060Z,3.61
2019-03-05T07:13:43.729Z,3.55
2019-03-05T07:18:51.362Z,3.79
2019-03-05T07:23:59.123Z,2.62
2019-03-05T07:29:06.756Z,2.97
2019-03-05T07:34:14.419Z,2.25
2019-03-05T07:39:22.057Z,2.56
2019-03-05T07:44:29.888Z,3.10
2019-03-05T07:49:43.939Z,3.47
2019-03-05T07:54:44.620Z,3.71
2019-03-05T07:59:52.206Z,3.53
2019-03-05T08:04:59.874Z,4.07
2019-03-05T08:10:07.489Z,3.65
2019-03-05T08:15:15.140Z,4.24
2019-03-05T08:20:22.767Z,4.43
2019-03-05T08:25:30.578Z,4.88
2019-03-05T08:30:38.190Z,3.92
2019-03-05T08:35:45.861Z,4.00
2019-03-05T08:40:53.502Z,4.31
2019-03-05T08:46:01.178Z,4.28
2019-03-05T08:51:08.787Z,3.91
2019-03-05T08:56:16.421Z,3.77
2019-03-05T09:01:24.029Z,4.78
2019-03-05T09:06:31.663Z,4.50
2019-03-05T09:11:39.294Z,4.07
2019-03-05T09:16:46.963Z,3.61
2019-03-05T09:21:54.560Z,7.29
2019-03-05T09:27:02.202Z,3.84
2019-03-05T09:32:09.837Z,4.59
2019-03-05T09:37:17.544Z,4.55
2019-03-05T09:42:25.151Z,4.50
2019-03-05T09:47:33.145Z,4.90
